createdAt,value
2018-04-25T00:01:48.685Z,69.73
2018-04-25T00:04:16.421Z,69.32
2018-04-25T00:06:43.980Z,70.00
2018-04-25T00:09:11.761Z,68.94
2018-04-25T00:11:39.307Z,69.11
2018-04-25T00:14:07.636Z,68.90
2018-04-25T00:16:35.229Z,68.86
2018-04-25T00:19:02.925Z,69.70
2018-04-25T00:21:33.182Z,70.72
2018-04-25T00:24:00.856Z,72.46
2018-04-25T00:26:28.516Z,74.07
2018-04-25T00:28:56.096Z,73.49
2018-04-25T00:31:24.570Z,73.20
2018-04-25T00:33:52.284Z,72.29
2018-04-25T00:36:19.888Z,72.07
2018-04-25T00:38:48.345Z,72.42
2018-04-25T00:41:15.956Z,72.66
2018-04-25T00:43:43.580Z,72.41
2018-04-25T00:46:11.365Z,73.61
2018-04-25T00:48:39.028Z,72.97
2018-04-25T00:51:06.613Z,72.00
2018-04-25T00:53:34.182Z,72.53
2018-04-25T00:56:04.550Z,72.75
2018-04-25T00:58:32.221Z,72.83
2018-04-25T01:00:59.893Z,73.01
2018-04-25T01:03:27.547Z,73.73
2018-04-25T01:05:55.145Z,73.55
2018-04-25T01:08:22.752Z,74.18
2018-04-25T01:10:50.388Z,74.44
2018-04-25T01:13:18.788Z,74.63
2018-04-25T01:15:46.425Z,74.84
2018-04-25T01:18:14.933Z,74.48
2018-04-25T01:20:43.421Z,73.89
2018-04-25T01:23:11.122Z,74.20
2018-04-25T01:25:39.644Z,74.11
2018-04-25T01:28:10.585Z,72.57
2018-04-25T01:30:46.031Z,71.68
2018-04-25T01:36:36.212Z,70.86
2018-04-25T01:39:08.754Z,70.99
2018-04-25T01:41:36.503Z,72.02
2018-04-25T01:47:05.664Z,73.56
2018-04-25T01:49:56.914Z,73.40
2018-04-25T01:52:36.394Z,73.40
2018-04-25T01:55:15.553Z,74.08
2018-04-25T01:57:54.893Z,75.26
2018-04-25T02:00:34.321Z,74.98
2018-04-25T02:03:01.345Z,75.48
2018-04-25T02:05:29.000Z,75.64
2018-04-25T02:07:56.552Z,76.95
2018-04-25T02:10:24.150Z,76.95
2018-04-25T02:12:51.716Z,77.88
2018-04-25T02:15:19.405Z,78.24
2018-04-25T02:17:47.051Z,79.23
2018-04-25T02:20:14.757Z,79.71
2018-04-25T02:22:43.279Z,80.20
2018-04-25T02:25:10.877Z,81.00
2018-04-25T02:27:38.470Z,81.46
2018-04-25T02:30:06.905Z,81.96
2018-04-25T02:32:34.523Z,82.19
2018-04-25T02:35:02.953Z,82.75
2018-04-25T02:37:30.633Z,83.04
2018-04-25T02:39:58.213Z,83.84
2018-04-25T02:42:25.845Z,84.07
2018-04-25T02:44:53.439Z,84.16
2018-04-25T02:47:21.005Z,84.26
2018-04-25T02:49:48.697Z,84.50
2018-04-25T02:52:16.264Z,84.86
2018-04-25T02:54:43.841Z,84.88
2018-04-25T02:57:12.292Z,84.75
2018-04-25T02:59:39.958Z,83.74
2018-04-25T03:02:07.570Z,83.62
2018-04-25T03:04:35.134Z,83.56
2018-04-25T03:07:02.745Z,83.50
2018-04-25T03:09:31.220Z,83.63
2018-04-25T03:11:58.789Z,83.80
2018-04-25T03:14:26.424Z,83.81
2018-04-25T03:16:54.039Z,83.99
2018-04-25T03:19:21.680Z,83.94
2018-04-25T03:21:49.247Z,83.92
2018-04-25T03:24:16.856Z,83.82
2018-04-25T03:26:45.196Z,84.01
2018-04-25T03:29:12.784Z,83.52
2018-04-25T03:31:40.351Z,83.34
2018-04-25T03:34:07.949Z,83.18
2018-04-25T03:36:35.598Z,83.09
2018-04-25T03:39:03.233Z,82.46
2018-04-25T03:41:30.854Z,81.97
2018-04-25T03:43:58.525Z,81.78
2018-04-25T03:46:26.141Z,81.68
2018-04-25T03:48:53.787Z,81.65
2018-04-25T03:51:21.348Z,81.18
2018-04-25T03:53:48.917Z,81.04
2018-04-25T03:56:16.592Z,80.88
2018-04-25T03:58:44.288Z,80.38
2018-04-25T04:01:12.025Z,79.57
2018-04-25T04:03:39.592Z,79.49
2018-04-25T04:06:07.326Z,79.28
2018-04-25T04:08:34.888Z,78.34
2018-04-25T04:11:02.504Z,77.96
2018-04-25T04:13:30.101Z,77.44
2018-04-25T04:15:57.791Z,77.59
2018-04-25T04:18:25.394Z,77.59
2018-04-25T04:20:52.985Z,76.60
2018-04-25T04:23:20.557Z,71.68
2018-04-25T04:25:48.121Z,66.74
2018-04-25T04:28:15.768Z,61.14
2018-04-25T04:30:43.945Z,57.58
2018-04-25T04:33:11.719Z,54.79
2018-04-25T04:35:39.307Z,51.97
2018-04-25T04:38:06.940Z,49.26
2018-04-25T04:40:34.510Z,47.93
2018-04-25T04:43:02.093Z,47.14
2018-04-25T04:45:29.728Z,45.72
2018-04-25T04:47:57.316Z,45.95
2018-04-25T04:50:24.945Z,44.18
2018-04-25T04:52:52.528Z,43.43
2018-04-25T04:55:21.057Z,42.40
2018-04-25T04:57:48.644Z,41.37
2018-04-25T05:00:16.248Z,41.38
2018-04-25T05:02:43.803Z,40.22
2018-04-25T05:05:11.371Z,40.11
2018-04-25T05:07:39.078Z,40.31
2018-04-25T05:10:06.701Z,41.01
2018-04-25T05:12:34.352Z,40.58
2018-04-25T05:15:01.977Z,39.58
2018-04-25T05:17:29.568Z,38.97
2018-04-25T05:19:57.136Z,38.88
2018-04-25T05:22:24.753Z,38.50
2018-04-25T05:24:52.511Z,37.97
2018-04-25T05:27:20.089Z,37.62
2018-04-25T05:29:47.729Z,37.89
2018-04-25T05:32:15.446Z,37.49
2018-04-25T05:34:43.037Z,37.47
2018-04-25T05:37:10.696Z,37.45
2018-04-25T05:39:38.460Z,38.39
2018-04-25T05:42:06.072Z,38.95
2018-04-25T05:44:33.656Z,38.38
2018-04-25T05:47:01.233Z,38.38
2018-04-25T05:49:28.980Z,39.39
2018-04-25T05:51:56.587Z,39.62
2018-04-25T05:54:24.210Z,39.09
2018-04-25T05:56:52.210Z,39.14
2018-04-25T05:59:19.768Z,38.97
2018-04-25T06:01:47.497Z,38.91
2018-04-25T06:04:15.115Z,37.56
2018-04-25T06:06:42.724Z,37.34
2018-04-25T06:09:10.316Z,37.70
2018-04-25T06:11:38.873Z,35.83
2018-04-25T06:14:06.467Z,35.84
2018-04-25T06:16:34.173Z,36.13
2018-04-25T06:19:01.749Z,36.29
2018-04-25T06:21:29.348Z,38.31
2018-04-25T06:23:57.031Z,40.43
2018-04-25T06:26:24.725Z,45.23
2018-04-25T06:28:52.295Z,47.66
2018-04-25T06:31:19.973Z,50.25
2018-04-25T06:33:47.591Z,49.85
2018-04-25T06:36:15.448Z,49.12
2018-04-25T06:38:43.029Z,46.67
2018-04-25T06:41:10.729Z,44.94
2018-04-25T06:43:38.311Z,46.40
2018-04-25T06:46:05.929Z,47.66
2018-04-25T06:48:33.572Z,49.68
2018-04-25T06:51:01.209Z,51.26
2018-04-25T06:53:28.861Z,50.01
2018-04-25T06:55:56.577Z,50.21
2018-04-25T06:58:24.213Z,48.96
2018-04-25T07:00:51.830Z,48.17
2018-04-25T07:03:19.409Z,47.55
2018-04-25T07:05:47.021Z,49.15
2018-04-25T07:08:14.700Z,50.77
2018-04-25T07:10:42.376Z,48.79
2018-04-25T07:13:10.024Z,48.54
2018-04-25T07:15:37.677Z,49.50
2018-04-25T07:18:05.238Z,46.63
2018-04-25T07:20:32.815Z,47.22
2018-04-25T07:23:00.453Z,47.78
2018-04-25T07:25:28.037Z,48.09
2018-04-25T07:27:55.679Z,48.74
2018-04-25T07:30:23.255Z,50.31
2018-04-25T07:32:50.953Z,49.41
2018-04-25T07:35:18.592Z,48.68
2018-04-25T07:37:46.161Z,48.03
2018-04-25T07:40:13.733Z,48.47
2018-04-25T07:42:41.362Z,46.83
2018-04-25T07:45:08.989Z,45.92
2018-04-25T07:47:36.613Z,48.34
2018-04-25T07:50:04.323Z,47.26
2018-04-25T07:52:31.892Z,47.39
2018-04-25T07:54:59.447Z,47.75
2018-04-25T07:57:27.025Z,47.14
2018-04-25T07:59:54.665Z,46.86
2018-04-25T08:02:22.280Z,46.62
2018-04-25T08:04:49.989Z,46.82
2018-04-25T08:07:17.704Z,47.72
2018-04-25T08:09:45.278Z,48.75
2018-04-25T08:12:24.711Z,48.58
2018-04-25T08:15:03.960Z,48.06
2018-04-25T08:17:43.457Z,50.09
2018-04-25T08:20:22.858Z,48.43
2018-04-25T08:22:50.469Z,47.37
2018-04-25T08:25:18.197Z,47.28
2018-04-25T08:27:45.864Z,47.69
2018-04-25T08:30:13.497Z,47.40
2018-04-25T08:32:41.117Z,47.36
2018-04-25T08:35:08.764Z,48.93
2018-04-25T08:37:36.348Z,48.53
2018-04-25T08:40:03.981Z,47.33
2018-04-25T08:42:31.612Z,47.64
2018-04-25T08:44:59.271Z,49.27
2018-04-25T08:47:26.901Z,47.61
2018-04-25T08:49:54.464Z,47.10
2018-04-25T08:52:22.068Z,46.44
2018-04-25T08:54:49.666Z,48.03
2018-04-25T08:57:17.321Z,48.06
2018-04-25T08:59:45.712Z,47.07
2018-04-25T09:02:13.376Z,47.57
2018-04-25T09:04:41.058Z,46.98
2018-04-25T09:07:08.681Z,47.53
2018-04-25T09:09:36.280Z,46.01
2018-04-25T09:12:03.827Z,45.88
2018-04-25T09:14:31.461Z,46.29
2018-04-25T09:16:59.160Z,47.71
2018-04-25T09:19:26.730Z,47.54
2018-04-25T09:21:54.430Z,47.29
2018-04-25T09:24:22.016Z,46.75
2018-04-25T09:26:49.573Z,47.27
2018-04-25T09:29:17.140Z,45.39
2018-04-25T09:31:44.848Z,44.93
2018-04-25T09:34:12.505Z,43.91
2018-04-25T09:36:40.091Z,43.49
2018-04-25T09:39:07.773Z,42.68
2018-04-25T09:41:35.329Z,43.55
2018-04-25T09:44:02.991Z,43.12
2018-04-25T09:46:30.642Z,43.48
2018-04-25T09:48:58.261Z,42.75
2018-04-25T09:51:25.974Z,43.62
2018-04-25T09:53:53.660Z,42.95
2018-04-25T09:56:21.407Z,44.43
2018-04-25T09:58:48.969Z,43.47
2018-04-25T10:01:22.216Z,43.24
2018-04-25T10:03:49.783Z,43.27
2018-04-25T10:06:17.420Z,42.72
2018-04-25T10:08:44.970Z,42.88
2018-04-25T10:11:12.555Z,43.59
2018-04-25T10:13:40.177Z,43.16
2018-04-25T10:16:07.732Z,43.01
2018-04-25T10:18:35.344Z,43.34
2018-04-25T10:21:02.904Z,42.79
2018-04-25T10:23:30.557Z,42.74
2018-04-25T10:25:58.131Z,41.67
2018-04-25T10:28:25.749Z,41.49
2018-04-25T10:30:53.425Z,39.78
2018-04-25T10:33:21.073Z,40.01
2018-04-25T10:35:48.709Z,39.20
2018-04-25T10:38:16.295Z,38.50
2018-04-25T10:40:43.936Z,39.09
2018-04-25T10:43:11.559Z,36.82
2018-04-25T10:45:39.192Z,35.76
2018-04-25T10:48:06.744Z,36.64
2018-04-25T10:50:34.311Z,36.18
2018-04-25T10:53:01.957Z,35.55
2018-04-25T10:55:29.644Z,33.86
2018-04-25T10:57:57.150Z,32.90
2018-04-25T11:00:24.716Z,31.98
2018-04-25T11:02:52.368Z,32.09
2018-04-25T11:05:19.928Z,32.01
2018-04-25T11:07:47.541Z,32.86
2018-04-25T11:10:15.183Z,32.82
2018-04-25T11:12:43.739Z,32.01
2018-04-25T11:15:11.297Z,32.57
2018-04-25T11:17:38.936Z,32.33
2018-04-25T11:20:06.576Z,31.40
2018-04-25T11:22:34.225Z,30.25
2018-04-25T11:25:01.950Z,29.56
2018-04-25T11:27:29.530Z,29.99
2018-04-25T11:29:57.092Z,28.73
2018-04-25T11:32:24.656Z,28.61
2018-04-25T11:34:52.286Z,28.61
2018-04-25T11:37:19.948Z,27.29
2018-04-25T11:39:47.578Z,27.10
2018-04-25T11:42:15.243Z,27.76
2018-04-25T11:44:42.838Z,28.74
2018-04-25T11:47:10.564Z,28.97
2018-04-25T11:49:38.084Z,29.74
2018-04-25T11:52:05.643Z,28.36
2018-04-25T11:54:33.210Z,29.44
2018-04-25T11:57:00.785Z,28.98
2018-04-25T11:59:28.464Z,27.58
2018-04-25T12:01:56.097Z,28.07
2018-04-25T12:04:23.753Z,27.75
2018-04-25T12:06:51.405Z,27.06
2018-04-25T12:09:18.960Z,27.58
2018-04-25T12:11:46.529Z,26.98
2018-04-25T12:14:14.104Z,27.73
2018-04-25T12:16:42.678Z,27.50
2018-04-25T12:19:10.272Z,26.79
2018-04-25T12:21:38.049Z,27.41
2018-04-25T12:24:05.649Z,27.11
2018-04-25T12:26:33.283Z,27.01
2018-04-25T12:29:00.859Z,25.92
2018-04-25T12:31:28.441Z,26.34
2018-04-25T12:33:56.052Z,26.88
2018-04-25T12:36:23.655Z,24.37
2018-04-25T12:38:51.397Z,24.14
2018-04-25T12:41:18.988Z,24.55
2018-04-25T12:43:46.629Z,24.61
2018-04-25T12:46:14.196Z,24.62
2018-04-25T12:48:41.768Z,25.30
2018-04-25T12:51:09.396Z,24.89
2018-04-25T12:53:37.024Z,24.80
2018-04-25T12:56:04.648Z,26.21
2018-04-25T12:58:32.285Z,25.45
2018-04-25T13:00:59.905Z,26.21
2018-04-25T13:03:27.558Z,24.80
2018-04-25T13:05:55.221Z,24.92
2018-04-25T13:08:22.893Z,25.33
2018-04-25T13:10:50.509Z,25.02
2018-04-25T13:13:18.078Z,23.49
2018-04-25T13:15:45.729Z,22.59
2018-04-25T13:18:19.894Z,23.04
2018-04-25T13:20:47.577Z,22.81
2018-04-25T13:23:15.133Z,23.48
2018-04-25T13:25:42.860Z,24.43
2018-04-25T13:28:10.426Z,26.37
2018-04-25T13:30:38.068Z,28.78
2018-04-25T13:33:05.710Z,29.25
2018-04-25T13:35:33.285Z,30.33
2018-04-25T13:38:00.961Z,30.82
2018-04-25T13:40:28.624Z,31.15
2018-04-25T13:42:56.270Z,32.72
2018-04-25T13:45:23.915Z,32.70
2018-04-25T13:47:51.476Z,32.33
2018-04-25T13:50:19.161Z,32.63
2018-04-25T13:52:46.752Z,32.90
2018-04-25T13:55:14.385Z,32.96
2018-04-25T13:57:41.972Z,33.52
2018-04-25T14:00:09.649Z,33.32
2018-04-25T14:02:37.269Z,34.33
2018-04-25T14:05:04.828Z,33.72
2018-04-25T14:07:32.454Z,33.38
2018-04-25T14:10:00.005Z,34.45
2018-04-25T14:12:27.575Z,34.61
2018-04-25T14:14:55.136Z,34.68
2018-04-25T14:17:22.760Z,34.29
2018-04-25T14:19:50.417Z,34.57
2018-04-25T14:22:17.970Z,33.15
2018-04-25T14:24:45.605Z,32.79
2018-04-25T14:27:13.196Z,33.70
2018-04-25T14:29:40.870Z,32.79
2018-04-25T14:32:08.448Z,33.84
2018-04-25T14:34:36.060Z,34.44
2018-04-25T14:37:03.617Z,34.43
2018-04-25T14:39:31.240Z,34.84
2018-04-25T14:41:58.806Z,33.74
2018-04-25T14:44:26.374Z,34.68
2018-04-25T14:46:53.937Z,35.93
2018-04-25T14:49:21.484Z,34.95
2018-04-25T14:51:49.106Z,35.06
2018-04-25T14:54:16.659Z,35.50
2018-04-25T14:56:44.860Z,37.03
2018-04-25T14:59:13.409Z,34.33
2018-04-25T15:01:41.071Z,35.68
2018-04-25T15:04:08.688Z,35.61
2018-04-25T15:06:36.285Z,36.13
2018-04-25T15:09:03.953Z,36.19
2018-04-25T15:11:31.554Z,35.68
2018-04-25T15:13:59.206Z,35.69
2018-04-25T15:16:26.792Z,37.03
2018-04-25T15:18:54.411Z,36.84
2018-04-25T15:21:22.019Z,37.22
2018-04-25T15:23:49.607Z,37.48
2018-04-25T15:26:17.248Z,37.57
2018-04-25T15:28:44.836Z,38.09
2018-04-25T15:31:12.513Z,36.84
2018-04-25T15:33:40.133Z,37.93
2018-04-25T15:36:07.707Z,37.93
2018-04-25T15:38:35.276Z,37.45
2018-04-25T15:41:02.990Z,37.02
2018-04-25T15:43:30.653Z,37.85
2018-04-25T15:45:58.220Z,37.91
2018-04-25T15:48:25.981Z,38.24
2018-04-25T15:50:53.632Z,38.87
2018-04-25T15:53:21.415Z,39.48
2018-04-25T15:55:49.018Z,39.96
2018-04-25T15:58:16.635Z,39.09
2018-04-25T16:00:44.298Z,38.92
2018-04-25T16:03:11.871Z,39.10
2018-04-25T16:05:39.544Z,39.83
2018-04-25T16:08:07.132Z,40.56
2018-04-25T16:10:34.801Z,40.15
2018-04-25T16:13:02.453Z,40.64
2018-04-25T16:15:30.069Z,41.81
2018-04-25T16:17:57.636Z,42.08
2018-04-25T16:20:25.234Z,43.14
2018-04-25T16:22:53.002Z,44.32
2018-04-25T16:25:20.539Z,45.64
2018-04-25T16:27:48.110Z,47.03
2018-04-25T16:30:15.675Z,48.34
2018-04-25T16:32:43.254Z,49.70
2018-04-25T16:35:10.980Z,51.00
2018-04-25T16:37:38.532Z,50.92
2018-04-25T16:40:06.198Z,51.83
2018-04-25T16:42:33.829Z,52.24
2018-04-25T16:45:01.477Z,52.71
2018-04-25T16:47:29.101Z,53.44
2018-04-25T16:49:56.657Z,53.05
2018-04-25T16:52:24.225Z,54.05
2018-04-25T16:54:51.848Z,53.98
2018-04-25T16:57:19.591Z,53.86
2018-04-25T16:59:47.196Z,54.12
2018-04-25T17:02:14.802Z,54.51
2018-04-25T17:04:42.437Z,55.49
2018-04-25T17:07:09.991Z,55.12
2018-04-25T17:09:37.612Z,55.11
2018-04-25T17:12:05.239Z,55.49
2018-04-25T17:14:32.950Z,56.10
2018-04-25T17:17:00.518Z,56.27
2018-04-25T17:19:28.091Z,56.17
2018-04-25T17:21:55.673Z,56.62
2018-04-25T17:24:23.267Z,57.51
2018-04-25T17:26:50.841Z,57.45
2018-04-25T17:29:18.485Z,57.62
2018-04-25T17:31:46.152Z,57.72
2018-04-25T17:34:13.792Z,57.44
2018-04-25T17:36:41.417Z,57.39
2018-04-25T17:39:08.999Z,57.60
2018-04-25T17:41:36.688Z,58.55
2018-04-25T17:44:04.238Z,58.35
2018-04-25T17:46:31.807Z,58.37
2018-04-25T17:48:59.489Z,58.14
2018-04-25T17:51:27.075Z,58.31
2018-04-25T17:53:54.656Z,58.65
2018-04-25T17:56:22.236Z,59.19
2018-04-25T17:58:49.830Z,59.40
2018-04-25T18:01:17.457Z,59.80
2018-04-25T18:03:45.025Z,60.40
2018-04-25T18:06:12.681Z,60.97
2018-04-25T18:08:40.321Z,61.15
2018-04-25T18:11:07.916Z,61.71
2018-04-25T18:13:35.481Z,61.86
2018-04-25T18:16:03.080Z,62.24
2018-04-25T18:18:30.716Z,62.84
2018-04-25T18:20:58.293Z,62.99
2018-04-25T18:23:25.908Z,63.29
2018-04-25T18:25:53.476Z,63.07
2018-04-25T18:28:21.040Z,63.10
2018-04-25T18:30:48.681Z,63.17
2018-04-25T18:33:16.329Z,63.48
2018-04-25T18:35:43.971Z,63.29
2018-04-25T18:38:11.599Z,63.33
2018-04-25T18:40:39.212Z,63.50
2018-04-25T18:43:06.849Z,62.82
2018-04-25T18:45:34.407Z,62.70
2018-04-25T18:48:02.052Z,62.54
2018-04-25T18:50:29.659Z,62.41
2018-04-25T18:52:57.241Z,62.39
2018-04-25T18:55:24.801Z,62.04
2018-04-25T18:57:52.475Z,60.80
2018-04-25T19:00:20.060Z,61.00
2018-04-25T19:02:47.704Z,60.60
2018-04-25T19:05:15.426Z,60.21
2018-04-25T19:07:43.007Z,60.02
2018-04-25T19:10:10.582Z,59.19
2018-04-25T19:12:38.140Z,59.15
2018-04-25T19:15:05.797Z,59.46
2018-04-25T19:17:33.386Z,59.58
2018-04-25T19:20:00.973Z,59.28
2018-04-25T19:22:28.605Z,59.03
2018-04-25T19:24:56.190Z,59.13
2018-04-25T19:27:23.760Z,59.21
2018-04-25T19:29:51.382Z,59.04
2018-04-25T19:32:19.031Z,59.06
2018-04-25T19:34:46.593Z,58.92
2018-04-25T19:37:14.168Z,59.17
2018-04-25T19:39:41.777Z,58.80
2018-04-25T19:42:09.332Z,58.84
2018-04-25T19:44:37.014Z,58.69
2018-04-25T19:47:04.641Z,58.70
2018-04-25T19:49:32.264Z,58.54
2018-04-25T19:51:59.828Z,58.29
2018-04-25T19:54:27.447Z,58.14
2018-04-25T19:56:55.063Z,58.39
2018-04-25T19:59:22.641Z,58.45
2018-04-25T20:01:50.222Z,58.42
2018-04-25T20:04:17.825Z,58.76
2018-04-25T20:06:45.448Z,58.86
2018-04-25T20:09:13.061Z,58.92
2018-04-25T20:11:40.633Z,59.09
2018-04-25T20:14:08.204Z,60.72
2018-04-25T20:16:35.773Z,61.37
2018-04-25T20:19:03.404Z,61.29
2018-04-25T20:21:31.042Z,61.51
2018-04-25T20:23:58.656Z,61.75
2018-04-25T20:26:26.361Z,62.49
2018-04-25T20:28:53.901Z,62.29
2018-04-25T20:31:21.468Z,62.72
2018-04-25T20:33:49.048Z,62.70
2018-04-25T20:36:16.664Z,62.90
2018-04-25T20:38:44.300Z,63.10
2018-04-25T20:41:11.912Z,62.83
2018-04-25T20:43:39.480Z,62.74
2018-04-25T20:46:07.066Z,63.01
2018-04-25T20:48:34.647Z,63.41
2018-04-25T20:51:02.249Z,62.93
2018-04-25T20:53:29.883Z,63.25
2018-04-25T20:55:57.450Z,63.67
2018-04-25T20:58:25.066Z,64.16
2018-04-25T21:00:53.416Z,64.65
2018-04-25T21:03:21.021Z,65.00
2018-04-25T21:05:48.673Z,65.20
2018-04-25T21:08:16.241Z,65.04
2018-04-25T21:10:43.917Z,65.20
2018-04-25T21:13:11.605Z,66.87
2018-04-25T21:15:39.550Z,67.13
2018-04-25T21:18:07.129Z,67.33
2018-04-25T21:20:34.721Z,67.45
2018-04-25T21:23:02.364Z,67.10
2018-04-25T21:25:30.876Z,67.35
2018-04-25T21:27:58.436Z,67.93
2018-04-25T21:30:26.002Z,68.05
2018-04-25T21:32:53.577Z,68.69
2018-04-25T21:35:21.275Z,68.80
2018-04-25T21:37:48.972Z,68.78
2018-04-25T21:40:16.595Z,68.94
2018-04-25T21:42:44.172Z,69.37
2018-04-25T21:45:11.745Z,69.65
2018-04-25T21:47:39.392Z,70.11
2018-04-25T21:50:07.041Z,71.06
2018-04-25T21:52:34.593Z,71.65
2018-04-25T21:55:02.202Z,72.11
2018-04-25T21:57:29.836Z,72.46
2018-04-25T21:59:57.499Z,73.20
2018-04-25T22:02:25.065Z,72.75
2018-04-25T22:04:53.077Z,73.22
2018-04-25T22:07:20.776Z,73.49
2018-04-25T22:09:48.365Z,73.28
2018-04-25T22:12:15.990Z,73.46
2018-04-25T22:14:43.630Z,73.91
2018-04-25T22:17:11.220Z,73.54
2018-04-25T22:19:38.889Z,73.80
2018-04-25T22:22:06.521Z,73.91
2018-04-25T22:24:34.895Z,73.88
2018-04-25T22:27:02.500Z,73.90
2018-04-25T22:29:30.072Z,74.04
2018-04-25T22:31:57.630Z,73.45
2018-04-25T22:34:25.208Z,73.45
2018-04-25T22:36:52.844Z,73.54
2018-04-25T22:39:20.466Z,73.60
2018-04-25T22:41:48.116Z,74.01
2018-04-25T22:44:15.782Z,74.11
2018-04-25T22:46:43.400Z,74.55
2018-04-25T22:49:11.031Z,74.89
2018-04-25T22:51:38.667Z,75.39
2018-04-25T22:54:06.292Z,75.66
2018-04-25T22:56:33.908Z,76.23
2018-04-25T22:59:01.537Z,76.59
2018-04-25T23:01:29.263Z,76.81
2018-04-25T23:03:56.841Z,77.45
2018-04-25T23:06:24.458Z,77.74
2018-04-25T23:08:52.096Z,77.91
2018-04-25T23:11:19.737Z,78.25
2018-04-25T23:13:47.450Z,78.34
2018-04-25T23:16:15.072Z,78.38
2018-04-25T23:18:42.717Z,78.89
2018-04-25T23:21:10.400Z,78.63
2018-04-25T23:23:38.956Z,78.47
2018-04-25T23:26:06.634Z,78.78
2018-04-25T23:32:05.052Z,78.89
2018-04-25T23:34:32.676Z,79.03
2018-04-25T23:37:00.287Z,79.08
2018-04-25T23:39:27.927Z,79.17
2018-04-25T23:41:55.561Z,79.08
2018-04-25T23:44:23.234Z,79.45
2018-04-25T23:46:50.867Z,79.63
2018-04-25T23:49:18.600Z,79.85
2018-04-25T23:51:47.037Z,80.04
2018-04-25T23:54:14.763Z,80.27
2018-04-25T23:56:42.407Z,80.27
2018-04-25T23:59:10.040Z,80.42
